Glenford, New York
Current Conditions -  °F | °C
As of 8:53 AM on Saturday 20 Dec 2014 (Local Time) from KPOU Reporting Station
Overcast Overcast  
Wind Chill: 22°   Ceiling: 3200
Heat Index: 30°   Visibility: 10mi
Dew Point: 18°   Wind: 8mph
Humidity: 61%   Direction: 20°NNE
Pressure: 30.3"   Gusts: NA
Location:  42°N, 74.13°W
Report Text: KPOU 201353Z AUTO 02007KT 10SM OVC032 M01/M08 A3030 RMK AO2 SLP258 T10111078 TSNO
Loading
Personal Weather Stations






























Interactive Weather Map New forecast layout! Learn more

10-Day Weather Forecast

Advertisements
Track Severe Weather on mobile